Time;durP1;ratioP1;P1;durP2;ratioP2;P2;SDS_P1;SDS_P2;PMS_P1;PMS_P2;Temp;Humidity;BMP_temperature;BMP_pressure;BME280_temperature;BME280_humidity;BME280_pressure;Samples;Min_cycle;Max_cycle;Signal;HPM_P1;HPM_P2
2021/09/18 00:00:39;;;;;;;26.45;17.05;;;15.10;87.20;;;;;;5051939;28;20392;-79
2021/09/18 00:03:05;;;;;;;24.73;16.27;;;15.10;87.10;;;;;;5051791;28;20389;-79
2021/09/18 00:05:31;;;;;;;30.63;17.25;;;15.00;87.30;;;;;;5051898;28;20718;-79
2021/09/18 00:07:57;;;;;;;29.63;18.10;;;15.00;87.30;;;;;;5051770;28;20384;-79
2021/09/18 00:10:22;;;;;;;28.50;17.83;;;15.00;87.40;;;;;;5051610;28;20380;-79
2021/09/18 00:12:48;;;;;;;27.30;17.37;;;14.90;87.30;;;;;;5033677;28;20462;-79
2021/09/18 00:15:14;;;;;;;31.90;18.92;;;14.90;87.40;;;;;;5033942;28;20443;-79
2021/09/18 00:17:39;;;;;;;29.77;18.92;;;14.90;87.40;;;;;;5032530;28;20441;-79
2021/09/18 00:20:06;;;;;;;29.00;17.60;;;14.90;87.40;;;;;;5051672;28;20373;-79
2021/09/18 00:22:31;;;;;;;28.90;17.45;;;14.90;87.40;;;;;;5033433;28;20382;-79
2021/09/18 00:24:58;;;;;;;26.23;16.50;;;14.90;87.30;;;;;;5051426;28;20370;-79
2021/09/18 00:27:24;;;;;;;25.42;15.60;;;15.00;87.40;;;;;;5051405;28;20862;-78
2021/09/18 00:29:49;;;;;;;26.08;16.63;;;15.00;87.30;;;;;;5051374;28;20464;-79
2021/09/18 00:32:15;;;;;;;29.45;17.08;;;15.00;87.40;;;;;;5033400;28;20389;-79
2021/09/18 00:34:41;;;;;;;25.80;16.03;;;14.90;87.50;;;;;;5051698;28;20424;-79
2021/09/18 00:37:06;;;;;;;26.17;16.07;;;14.90;87.40;;;;;;5051280;28;20446;-79
2021/09/18 00:39:32;;;;;;;25.38;16.40;;;15.00;87.50;;;;;;5051343;28;20729;-79
2021/09/18 00:41:58;;;;;;;26.97;16.37;;;15.00;87.40;;;;;;5033596;28;20858;-79
2021/09/18 00:44:27;;;;;;;26.02;17.02;;;14.90;87.70;;;;;;5051218;28;20396;-79
2021/09/18 00:46:53;;;;;;;27.08;16.40;;;14.90;87.90;;;;;;5033165;28;20381;-79
2021/09/18 00:49:19;;;;;;;28.08;17.83;;;14.90;87.80;;;;;;5051060;28;20389;-79
2021/09/18 00:51:46;;;;;;;26.08;16.08;;;14.90;87.90;;;;;;5050934;28;20374;-79
2021/09/18 00:54:13;;;;;;;27.33;17.98;;;14.90;87.90;;;;;;5033147;28;20538;-80
2021/09/18 00:56:39;;;;;;;25.80;16.25;;;14.90;87.80;;;;;;5033019;28;20476;-79
2021/09/18 00:59:05;;;;;;;28.48;18.00;;;14.90;87.70;;;;;;5033055;28;20420;-79
2021/09/18 01:01:31;;;;;;;33.67;17.92;;;14.90;88.30;;;;;;5033025;28;20389;-79
2021/09/18 01:03:59;;;;;;;30.25;18.48;;;14.90;88.30;;;;;;5033005;28;20396;-79
2021/09/18 01:06:25;;;;;;;27.90;17.87;;;14.90;88.20;;;;;;5032941;28;20394;-78
2021/09/18 01:08:56;;;;;;;28.80;17.75;;;14.90;88.20;;;;;;5032997;28;20404;-79
2021/09/18 01:11:22;;;;;;;28.80;18.25;;;14.90;88.20;;;;;;5032878;28;20382;-79
2021/09/18 01:13:49;;;;;;;28.67;18.33;;;14.90;88.20;;;;;;5032847;28;20405;-79
2021/09/18 01:16:14;;;;;;;28.57;18.33;;;15.00;87.80;;;;;;5032814;28;20439;-79
2021/09/18 01:18:40;;;;;;;28.43;17.53;;;15.00;87.90;;;;;;5050602;28;20401;-79
2021/09/18 01:21:09;;;;;;;30.15;18.17;;;15.00;87.80;;;;;;5050544;28;20385;-79
2021/09/18 01:23:35;;;;;;;29.80;18.35;;;15.00;87.80;;;;;;5032701;28;20469;-79
2021/09/18 01:26:00;;;;;;;32.85;19.02;;;15.00;87.90;;;;;;5032769;28;20476;-79
2021/09/18 01:28:26;;;;;;;27.13;18.07;;;15.00;88.20;;;;;;5034536;28;20395;-79
2021/09/18 01:30:52;;;;;;;28.75;18.20;;;15.00;88.30;;;;;;5036886;28;20386;-78
2021/09/18 01:33:19;;;;;;;32.47;18.80;;;15.00;88.00;;;;;;5036815;28;20774;-79
2021/09/18 01:35:44;;;;;;;31.00;18.70;;;15.00;88.30;;;;;;5054613;28;20381;-79
2021/09/18 01:38:10;;;;;;;27.87;18.07;;;14.90;88.40;;;;;;5036693;28;20412;-79
2021/09/18 01:40:39;;;;;;;30.70;18.63;;;14.90;88.50;;;;;;5036673;28;20393;-78
2021/09/18 01:43:06;;;;;;;29.95;18.58;;;14.90;88.70;;;;;;5036560;28;20393;-80
2021/09/18 01:45:33;;;;;;;34.70;18.52;;;14.90;88.20;;;;;;5036623;28;20385;-79
2021/09/18 01:48:02;;;;;;;32.08;19.23;;;14.90;88.20;;;;;;5054458;28;20677;-79
2021/09/18 01:50:47;;;;;;;31.38;18.77;;;14.90;88.30;;;;;;5036478;28;20381;-79
2021/09/18 01:53:18;;;;;;;35.63;20.00;;;14.80;88.20;;;;;;5036366;28;20389;-79
2021/09/18 01:55:44;;;;;;;34.60;19.58;;;14.80;88.60;;;;;;5036152;28;20397;-79
2021/09/18 01:58:11;;;;;;;32.90;18.70;;;14.80;88.30;;;;;;5036350;28;20405;-79
2021/09/18 02:00:39;;;;;;;32.55;18.52;;;14.90;88.10;;;;;;5036283;28;20388;-79
2021/09/18 02:03:04;;;;;;;31.52;19.30;;;14.90;87.90;;;;;;5054156;28;20370;-79
2021/09/18 02:05:30;;;;;;;37.40;19.80;;;14.90;87.90;;;;;;5036147;28;20387;-78
2021/09/18 02:07:56;;;;;;;32.80;19.57;;;14.80;88.40;;;;;;5036191;28;20746;-79
2021/09/18 02:10:25;;;;;;;31.83;20.38;;;14.80;88.50;;;;;;5036018;28;20385;-79
2021/09/18 02:12:51;;;;;;;31.30;19.37;;;14.80;88.50;;;;;;5036026;28;20922;-79
2021/09/18 02:15:18;;;;;;;33.08;19.48;;;14.80;88.60;;;;;;5054177;28;20392;-79
2021/09/18 02:17:44;;;;;;;33.33;20.10;;;14.80;88.70;;;;;;5035733;28;20407;-79
2021/09/18 02:20:13;;;;;;;32.28;18.55;;;14.80;88.70;;;;;;5035988;28;20381;-79
2021/09/18 02:22:39;;;;;;;42.35;22.60;;;14.90;88.60;;;;;;5052603;28;20389;-79
2021/09/18 02:25:06;;;;;;;37.78;21.05;;;14.90;88.40;;;;;;5035773;28;20392;-79
2021/09/18 02:27:32;;;;;;;38.05;21.60;;;14.80;88.60;;;;;;5035659;28;20472;-79
2021/09/18 02:29:58;;;;;;;42.35;23.23;;;14.80;88.60;;;;;;5053867;28;20467;-80
2021/09/18 02:32:23;;;;;;;40.77;22.37;;;14.80;88.60;;;;;;5053580;28;20456;-79
2021/09/18 02:34:49;;;;;;;42.37;24.33;;;14.80;88.80;;;;;;5035662;28;20386;-79
2021/09/18 02:37:15;;;;;;;37.97;22.65;;;14.80;88.90;;;;;;5035737;28;20377;-79
2021/09/18 02:39:40;;;;;;;37.17;20.88;;;14.80;88.90;;;;;;5034359;28;20744;-79
2021/09/18 02:42:06;;;;;;;43.37;23.17;;;14.80;88.70;;;;;;5035513;28;20424;-79
2021/09/18 02:44:32;;;;;;;43.43;23.60;;;14.80;88.80;;;;;;5053453;28;20776;-78
2021/09/18 02:46:57;;;;;;;39.75;22.50;;;14.80;89.00;;;;;;5035419;28;20386;-79
2021/09/18 02:49:23;;;;;;;37.72;22.88;;;14.80;88.50;;;;;;5035424;28;20386;-79
2021/09/18 02:51:49;;;;;;;39.03;22.27;;;14.80;88.70;;;;;;5053345;28;20392;-79
2021/09/18 02:54:15;;;;;;;39.08;22.88;;;14.70;88.90;;;;;;5035272;28;20392;-79
2021/09/18 02:56:42;;;;;;;37.22;21.50;;;14.70;88.80;;;;;;5035099;28;20391;-79
2021/09/18 02:59:09;;;;;;;38.47;21.38;;;14.70;89.10;;;;;;5035156;28;20429;-79
2021/09/18 03:01:35;;;;;;;36.85;22.02;;;14.70;88.70;;;;;;5035135;28;20385;-79
2021/09/18 03:04:01;;;;;;;39.85;21.55;;;14.80;88.60;;;;;;5034906;28;20869;-79
2021/09/18 03:06:26;;;;;;;37.08;21.27;;;14.70;88.70;;;;;;5035118;28;20381;-79
2021/09/18 03:08:52;;;;;;;32.60;19.40;;;14.60;88.60;;;;;;5034970;28;20384;-79
2021/09/18 03:11:17;;;;;;;35.70;20.50;;;14.60;88.60;;;;;;5052771;28;20378;-79
2021/09/18 03:13:43;;;;;;;34.40;20.48;;;14.60;88.60;;;;;;5052781;28;20381;-79
2021/09/18 03:16:09;;;;;;;33.47;19.67;;;14.60;88.80;;;;;;5034767;28;20389;-79
2021/09/18 03:18:35;;;;;;;32.13;19.55;;;14.50;88.80;;;;;;5052957;28;20917;-79
2021/09/18 03:21:00;;;;;;;35.43;19.00;;;14.40;88.90;;;;;;5035101;28;20470;-79
2021/09/18 03:23:26;;;;;;;31.33;18.63;;;14.60;88.60;;;;;;5034766;28;20389;-79
2021/09/18 03:25:52;;;;;;;31.58;18.77;;;14.60;88.50;;;;;;5034718;28;20899;-79
2021/09/18 03:28:18;;;;;;;36.72;20.42;;;14.50;88.50;;;;;;5052504;28;20896;-79
2021/09/18 03:30:43;;;;;;;31.25;19.50;;;14.50;88.40;;;;;;5034625;28;20389;-79
2021/09/18 03:33:09;;;;;;;38.13;20.00;;;14.50;88.40;;;;;;5034582;28;20394;-78
2021/09/18 03:35:35;;;;;;;36.47;21.20;;;14.50;88.20;;;;;;5034504;28;20374;-79
2021/09/18 03:38:01;;;;;;;37.05;21.40;;;14.40;88.30;;;;;;5034355;28;20406;-79
2021/09/18 03:40:26;;;;;;;37.50;22.50;;;14.40;88.50;;;;;;5034280;28;20385;-79
2021/09/18 03:42:52;;;;;;;33.50;21.33;;;14.30;88.70;;;;;;5034329;28;20404;-79
2021/09/18 03:45:18;;;;;;;35.60;21.70;;;14.30;88.60;;;;;;5034327;28;20395;-79
2021/09/18 03:47:43;;;;;;;37.38;21.73;;;14.30;88.40;;;;;;5034294;28;20389;-79
2021/09/18 03:50:10;;;;;;;35.72;20.92;;;14.30;88.20;;;;;;5034283;28;20378;-79
2021/09/18 03:52:36;;;;;;;36.67;21.10;;;14.30;88.50;;;;;;5033810;28;20492;-79
2021/09/18 03:55:03;;;;;;;36.08;20.92;;;14.20;88.70;;;;;;5033996;28;20393;-80
2021/09/18 03:57:29;;;;;;;34.80;21.02;;;14.10;88.60;;;;;;5034179;28;20436;-79
2021/09/18 03:59:55;;;;;;;33.53;19.83;;;14.10;88.80;;;;;;5034026;28;20405;-79
2021/09/18 04:02:20;;;;;;;32.77;19.77;;;14.20;88.40;;;;;;5034009;28;20382;-79
2021/09/18 04:04:46;;;;;;;32.10;20.17;;;14.10;88.50;;;;;;5033949;28;20421;-79
2021/09/18 04:07:13;;;;;;;33.42;20.33;;;14.10;88.60;;;;;;5033931;28;20385;-79
2021/09/18 04:09:39;;;;;;;31.85;19.45;;;14.10;88.20;;;;;;5051721;28;20400;-79
2021/09/18 04:12:04;;;;;;;33.63;19.20;;;14.10;88.30;;;;;;5033703;28;20468;-80
2021/09/18 04:14:30;;;;;;;33.53;19.63;;;14.10;88.20;;;;;;5033585;28;20382;-79
2021/09/18 04:16:56;;;;;;;30.97;19.07;;;14.00;88.40;;;;;;5033799;28;20390;-79
2021/09/18 04:19:21;;;;;;;32.85;18.50;;;14.00;88.20;;;;;;5051495;28;20388;-78
2021/09/18 04:21:47;;;;;;;31.13;19.03;;;14.00;88.30;;;;;;5033720;28;20385;-78
2021/09/18 04:24:13;;;;;;;37.33;19.73;;;13.90;88.40;;;;;;5033464;28;20840;-79
2021/09/18 04:26:38;;;;;;;32.40;18.40;;;14.00;88.30;;;;;;5033509;28;20392;-79
2021/09/18 04:29:04;;;;;;;31.92;19.77;;;14.00;88.10;;;;;;5033524;28;20874;-79
2021/09/18 04:31:31;;;;;;;36.30;20.98;;;14.00;88.00;;;;;;5033412;28;20866;-79
2021/09/18 04:33:56;;;;;;;32.45;19.25;;;14.00;88.10;;;;;;5033368;28;20385;-78
2021/09/18 04:36:22;;;;;;;33.15;19.95;;;13.90;88.20;;;;;;5033656;28;20396;-78
2021/09/18 04:38:48;;;;;;;39.90;21.48;;;13.90;88.10;;;;;;5051210;28;20862;-79
2021/09/18 04:41:13;;;;;;;36.72;20.33;;;13.80;88.30;;;;;;5033174;28;20421;-79
2021/09/18 04:43:39;;;;;;;30.10;18.87;;;13.80;88.30;;;;;;5033219;28;20377;-80
2021/09/18 04:46:05;;;;;;;33.73;19.67;;;13.80;88.10;;;;;;5051050;28;20819;-79
2021/09/18 04:48:31;;;;;;;33.03;20.13;;;13.80;88.20;;;;;;5033162;28;20385;-78
2021/09/18 04:50:57;;;;;;;33.90;19.00;;;13.80;88.10;;;;;;5033052;28;20783;-79
2021/09/18 04:53:22;;;;;;;30.92;18.20;;;13.70;88.30;;;;;;5032980;28;20424;-79
2021/09/18 04:55:48;;;;;;;33.75;18.40;;;13.70;88.20;;;;;;5033413;28;20484;-79
2021/09/18 04:58:14;;;;;;;35.17;19.48;;;13.60;88.20;;;;;;5050889;28;20408;-79
2021/09/18 05:00:40;;;;;;;29.30;18.67;;;13.60;88.30;;;;;;5033004;28;20382;-78
2021/09/18 05:03:07;;;;;;;29.57;17.83;;;13.50;88.60;;;;;;5032366;28;20691;-79
2021/09/18 05:05:33;;;;;;;28.77;17.40;;;13.50;88.40;;;;;;5033028;28;20385;-79
2021/09/18 05:07:58;;;;;;;28.25;17.73;;;13.60;88.30;;;;;;5050679;28;20397;-78
2021/09/18 05:10:24;;;;;;;28.87;17.67;;;13.60;88.10;;;;;;5032914;28;20392;-78
2021/09/18 05:12:50;;;;;;;32.43;17.97;;;13.50;88.30;;;;;;5032820;28;20868;-79
2021/09/18 05:15:16;;;;;;;31.53;18.60;;;13.50;88.30;;;;;;5032857;28;20479;-79
2021/09/18 05:17:41;;;;;;;32.60;18.63;;;13.40;88.30;;;;;;5032859;28;20408;-78
2021/09/18 05:20:08;;;;;;;29.00;18.20;;;13.50;88.30;;;;;;5032683;28;20389;-79
2021/09/18 05:22:34;;;;;;;32.00;19.23;;;13.40;88.40;;;;;;5032596;28;20788;-78
2021/09/18 05:24:59;;;;;;;32.40;18.97;;;13.40;88.50;;;;;;5051139;28;20492;-78
2021/09/18 05:27:25;;;;;;;36.08;19.23;;;13.40;88.50;;;;;;5050212;28;20388;-79
2021/09/18 05:29:51;;;;;;;32.88;19.75;;;13.40;88.40;;;;;;5032197;28;20465;-78
2021/09/18 05:32:17;;;;;;;32.63;19.27;;;13.40;88.40;;;;;;5032543;28;20417;-79
2021/09/18 05:34:42;;;;;;;34.75;20.42;;;13.40;88.50;;;;;;5032623;28;20389;-79
2021/09/18 05:37:08;;;;;;;36.33;21.73;;;13.40;88.50;;;;;;5032624;28;20377;-78
2021/09/18 05:39:34;;;;;;;34.85;20.63;;;13.40;88.60;;;;;;5032485;28;20412;-78
2021/09/18 05:42:00;;;;;;;33.80;21.17;;;13.30;88.70;;;;;;5032485;28;20396;-78
2021/09/18 05:44:25;;;;;;;40.20;22.60;;;13.40;88.60;;;;;;5032430;28;20746;-78
2021/09/18 05:46:51;;;;;;;35.80;21.10;;;13.40;88.70;;;;;;5032591;28;20378;-78
2021/09/18 05:49:17;;;;;;;33.63;19.83;;;13.40;88.70;;;;;;5032566;28;20401;-78
2021/09/18 05:51:43;;;;;;;33.05;18.73;;;13.40;88.70;;;;;;5032551;28;20405;-79
2021/09/18 05:54:08;;;;;;;36.60;20.20;;;13.40;88.80;;;;;;5032340;28;20435;-78
2021/09/18 05:56:34;;;;;;;35.63;20.30;;;13.40;88.90;;;;;;5032387;28;20429;-78
2021/09/18 05:59:01;;;;;;;37.93;21.10;;;13.40;89.20;;;;;;5032346;28;20880;-78
2021/09/18 06:01:26;;;;;;;33.72;20.25;;;13.40;89.10;;;;;;5032360;28;20390;-78
2021/09/18 06:03:52;;;;;;;35.73;20.70;;;13.40;89.00;;;;;;5032222;28;20766;-78
2021/09/18 06:06:18;;;;;;;34.63;20.67;;;13.40;89.20;;;;;;5050301;28;20382;-78
2021/09/18 06:08:43;;;;;;;39.28;21.55;;;13.50;89.30;;;;;;5032330;28;20401;-78
2021/09/18 06:11:09;;;;;;;38.17;21.50;;;13.50;89.00;;;;;;5032338;28;20393;-78
2021/09/18 06:13:35;;;;;;;39.67;22.88;;;13.60;88.70;;;;;;5032579;28;20385;-78
2021/09/18 06:16:01;;;;;;;39.42;23.15;;;13.70;88.80;;;;;;5036171;28;20726;-78
2021/09/18 06:18:27;;;;;;;39.15;22.88;;;13.70;89.10;;;;;;5036196;28;20491;-78
2021/09/18 06:20:53;;;;;;;41.40;23.52;;;13.60;89.10;;;;;;5035964;28;20389;-78
2021/09/18 06:23:19;;;;;;;42.05;22.88;;;13.70;89.10;;;;;;5035830;28;20382;-78
2021/09/18 06:25:44;;;;;;;41.17;23.08;;;13.70;89.40;;;;;;5035914;28;20381;-79
2021/09/18 06:28:10;;;;;;;40.97;23.13;;;13.60;89.40;;;;;;5035903;28;20715;-78
2021/09/18 06:30:36;;;;;;;40.13;23.17;;;13.80;89.10;;;;;;5035732;28;20465;-79
2021/09/18 06:33:02;;;;;;;48.07;25.33;;;13.80;89.00;;;;;;5035752;28;20400;-78
2021/09/18 06:35:28;;;;;;;41.65;23.70;;;13.80;89.20;;;;;;5035860;28;20734;-78
2021/09/18 06:37:53;;;;;;;40.33;22.90;;;13.80;89.50;;;;;;5035471;28;20463;-78
2021/09/18 06:40:20;;;;;;;45.08;26.55;;;13.90;89.10;;;;;;5053437;28;20800;-78
2021/09/18 06:42:46;;;;;;;45.35;24.70;;;13.90;89.20;;;;;;5035555;28;20481;-78
2021/09/18 06:45:12;;;;;;;46.80;26.00;;;13.90;89.60;;;;;;5035422;28;20870;-78
2021/09/18 06:47:38;;;;;;;47.15;25.77;;;13.90;89.50;;;;;;5035476;28;20389;-78
2021/09/18 06:50:06;;;;;;;46.57;27.33;;;13.90;89.40;;;;;;5035432;28;20536;-78
2021/09/18 06:52:32;;;;;;;44.97;25.35;;;13.90;89.40;;;;;;5053254;28;20373;-78
2021/09/18 06:54:58;;;;;;;47.55;26.17;;;14.00;89.60;;;;;;5035108;28;20393;-78
2021/09/18 06:57:23;;;;;;;48.35;27.77;;;14.10;89.20;;;;;;5035112;28;20382;-78
2021/09/18 06:59:49;;;;;;;61.90;31.50;;;14.10;89.80;;;;;;5035112;28;20396;-78
2021/09/18 07:02:15;;;;;;;85.30;41.00;;;14.20;89.70;;;;;;5035051;28;20385;-79
2021/09/18 07:04:41;;;;;;;85.90;40.70;;;14.20;91.00;;;;;;5034971;28;20788;-78
2021/09/18 07:07:06;;;;;;;120.17;53.30;;;14.20;91.20;;;;;;5034969;28;20382;-79
2021/09/18 07:09:32;;;;;;;108.37;53.00;;;14.40;92.60;;;;;;5035412;28;20404;-78
2021/09/18 07:11:58;;;;;;;118.03;52.95;;;14.50;92.70;;;;;;5034931;28;20389;-79
2021/09/18 07:14:24;;;;;;;127.65;55.38;;;14.60;93.00;;;;;;5034888;28;20473;-78
2021/09/18 07:16:49;;;;;;;123.63;53.33;;;14.60;93.40;;;;;;5034822;28;20388;-79
2021/09/18 07:19:15;;;;;;;124.57;57.45;;;14.70;93.00;;;;;;5034598;28;20402;-79
2021/09/18 07:21:41;;;;;;;113.10;56.35;;;14.80;93.40;;;;;;5052697;28;20850;-80
2021/09/18 07:24:07;;;;;;;117.20;56.38;;;14.80;93.60;;;;;;5034806;28;20494;-78
2021/09/18 07:26:36;;;;;;;121.80;58.30;;;14.90;93.20;;;;;;5051941;28;20529;-79
2021/09/18 07:29:04;;;;;;;112.70;55.50;;;15.00;92.60;;;;;;5034401;28;20512;-79
2021/09/18 07:31:30;;;;;;;106.03;53.63;;;15.10;92.20;;;;;;5034449;28;20386;-80
2021/09/18 07:33:56;;;;;;;97.95;51.55;;;15.10;91.30;;;;;;5034472;28;20381;-79
2021/09/18 07:36:22;;;;;;;110.05;53.88;;;15.20;91.80;;;;;;5034355;28;20388;-80
2021/09/18 07:38:48;;;;;;;107.13;53.63;;;15.30;91.80;;;;;;5034355;28;20432;-79
2021/09/18 07:41:15;;;;;;;100.78;50.30;;;15.30;91.80;;;;;;5034419;28;20389;-79
2021/09/18 07:43:41;;;;;;;103.03;52.15;;;15.30;91.30;;;;;;5034298;28;20381;-79
2021/09/18 07:46:07;;;;;;;112.18;54.95;;;15.40;91.60;;;;;;5052190;28;20425;-79
2021/09/18 07:48:32;;;;;;;103.15;52.22;;;15.40;91.70;;;;;;5034179;28;20740;-79
2021/09/18 07:50:58;;;;;;;102.68;53.60;;;15.40;91.60;;;;;;5034153;28;20923;-78
2021/09/18 07:53:24;;;;;;;102.70;50.90;;;15.50;91.80;;;;;;5033997;28;20382;-79
2021/09/18 07:55:50;;;;;;;83.03;43.90;;;15.50;91.60;;;;;;5033947;28;20460;-80
2021/09/18 07:58:16;;;;;;;88.73;44.53;;;15.50;91.80;;;;;;5051653;28;20398;-79
2021/09/18 08:00:43;;;;;;;78.28;41.15;;;15.60;91.80;;;;;;5034078;28;20392;-79
2021/09/18 08:03:08;;;;;;;85.07;43.40;;;15.60;91.50;;;;;;5033841;28;20392;-80
2021/09/18 08:05:34;;;;;;;80.45;42.65;;;15.60;91.60;;;;;;5052048;28;20457;-79
2021/09/18 08:08:01;;;;;;;72.70;39.72;;;15.70;91.30;;;;;;5033915;28;20393;-79
2021/09/18 08:10:26;;;;;;;75.90;39.50;;;15.70;91.20;;;;;;5051795;28;20383;-79
2021/09/18 08:12:52;;;;;;;75.18;38.40;;;15.70;91.10;;;;;;5033622;28;20385;-79
2021/09/18 08:15:18;;;;;;;69.88;37.33;;;15.70;90.90;;;;;;5033420;28;20421;-78
2021/09/18 08:17:46;;;;;;;70.22;36.85;;;15.80;90.80;;;;;;5033618;28;20410;-79
2021/09/18 08:20:13;;;;;;;70.90;38.15;;;15.80;90.70;;;;;;5033483;28;20906;-79
2021/09/18 08:22:39;;;;;;;69.95;37.00;;;15.90;90.60;;;;;;5051511;28;20374;-79
2021/09/18 08:25:06;;;;;;;63.28;36.20;;;16.10;90.40;;;;;;5033429;28;20401;-79
2021/09/18 08:27:31;;;;;;;76.40;36.83;;;16.20;90.10;;;;;;5051241;28;20936;-79
2021/09/18 08:29:57;;;;;;;78.73;40.43;;;16.10;90.50;;;;;;5033625;28;20386;-79
2021/09/18 08:32:23;;;;;;;75.97;39.53;;;16.20;90.20;;;;;;5033541;28;20377;-79
2021/09/18 08:34:48;;;;;;;80.95;43.03;;;16.30;89.90;;;;;;5033387;28;20707;-80
2021/09/18 08:37:15;;;;;;;77.00;42.07;;;16.30;89.80;;;;;;5032621;28;20382;-79
2021/09/18 08:39:41;;;;;;;88.50;45.05;;;16.30;90.10;;;;;;5033159;28;20408;-78
2021/09/18 08:42:09;;;;;;;84.50;44.40;;;16.40;89.50;;;;;;5033352;28;20855;-79
2021/09/18 08:44:35;;;;;;;85.93;44.47;;;16.50;89.40;;;;;;5051057;28;20388;-79
2021/09/18 08:47:01;;;;;;;80.97;42.88;;;16.60;89.50;;;;;;5033131;28;20421;-79
2021/09/18 08:49:28;;;;;;;78.53;40.72;;;16.60;88.70;;;;;;5033160;28;20656;-79
2021/09/18 08:51:55;;;;;;;80.88;41.50;;;16.70;88.00;;;;;;5051068;28;20435;-80
2021/09/18 08:54:21;;;;;;;76.57;41.67;;;16.80;89.40;;;;;;5033327;28;20435;-79
2021/09/18 08:56:46;;;;;;;73.82;40.40;;;16.90;88.70;;;;;;5032965;28;20401;-79
2021/09/18 08:59:12;;;;;;;74.97;40.78;;;16.90;88.30;;;;;;5032893;28;20471;-79
2021/09/18 09:01:37;;;;;;;70.73;40.03;;;17.00;88.10;;;;;;5033319;28;20424;-79
2021/09/18 09:04:07;;;;;;;71.22;39.03;;;17.00;88.10;;;;;;5033041;28;20412;-80
2021/09/18 09:06:50;;;;;;;70.72;38.10;;;17.10;89.40;;;;;;5032816;28;20386;-78
2021/09/18 09:09:16;;;;;;;66.38;38.47;;;17.10;87.30;;;;;;5051012;28;20385;-79
2021/09/18 09:11:53;;;;;;;57.47;32.23;;;17.20;86.00;;;;;;5032824;28;20875;-79
2021/09/18 09:14:19;;;;;;;61.27;34.33;;;17.30;85.70;;;;;;5032642;28;20389;-79
2021/09/18 09:17:04;;;;;;;57.67;31.73;;;17.30;85.80;;;;;;5032807;28;20377;-79
2021/09/18 09:19:38;;;;;;;55.60;30.20;;;17.40;84.00;;;;;;5032632;28;20482;-79
2021/09/18 09:22:04;;;;;;;56.97;31.77;;;17.40;84.80;;;;;;5050682;28;20377;-79
2021/09/18 09:24:30;;;;;;;61.00;33.07;;;17.60;85.60;;;;;;5050540;28;20381;-79
2021/09/18 09:27:13;;;;;;;56.37;32.60;;;17.60;85.00;;;;;;5032753;28;20715;-78
2021/09/18 09:29:54;;;;;;;54.25;31.45;;;17.80;84.40;;;;;;5032581;28;20389;-79
2021/09/18 09:32:35;;;;;;;55.78;30.48;;;17.90;83.60;;;;;;5050573;28;20378;-78
2021/09/18 09:35:12;;;;;;;53.75;29.33;;;17.80;83.10;;;;;;5032524;28;20738;-79
2021/09/18 09:37:39;;;;;;;48.35;28.77;;;17.90;84.70;;;;;;5032506;28;20385;-79
2021/09/18 09:40:08;;;;;;;49.73;28.93;;;18.10;83.70;;;;;;5032453;28;20866;-79
2021/09/18 09:42:42;;;;;;;48.27;29.13;;;18.30;83.80;;;;;;5032587;28;20390;-78
2021/09/18 09:45:15;;;;;;;52.00;29.05;;;18.30;81.30;;;;;;5032799;28;20809;-79
2021/09/18 09:47:42;;;;;;;46.78;27.05;;;18.30;82.60;;;;;;5032485;28;20476;-80
2021/09/18 09:50:09;;;;;;;46.55;28.30;;;18.30;81.70;;;;;;5035283;28;20446;-79
2021/09/18 09:52:37;;;;;;;46.53;26.40;;;18.30;81.90;;;;;;5036397;28;20417;-79
2021/09/18 09:55:10;;;;;;;46.70;26.80;;;18.30;82.70;;;;;;5036274;28;20599;-79
2021/09/18 09:57:36;;;;;;;41.00;24.00;;;18.30;83.90;;;;;;5036346;28;20492;-79
2021/09/18 10:00:08;;;;;;;40.45;25.05;;;18.50;81.70;;;;;;5036545;28;20480;-79
2021/09/18 10:02:36;;;;;;;46.35;27.02;;;18.50;80.70;;;;;;5036343;28;20377;-80
2021/09/18 10:05:03;;;;;;;39.25;23.45;;;18.50;81.80;;;;;;5036268;28;20385;-79
2021/09/18 10:07:29;;;;;;;32.53;19.38;;;18.80;84.10;;;;;;5036135;28;20472;-78
2021/09/18 10:09:55;;;;;;;38.90;22.97;;;18.90;81.70;;;;;;5036177;28;20473;-79
2021/09/18 10:12:22;;;;;;;37.47;21.60;;;18.90;79.40;;;;;;5036020;28;20420;-78
2021/09/18 10:14:52;;;;;;;37.20;21.88;;;18.90;80.00;;;;;;5036257;28;20439;-79
2021/09/18 10:17:18;;;;;;;33.63;20.92;;;18.80;79.10;;;;;;5035837;28;20851;-79
2021/09/18 10:25:19;;;;;;;34.60;21.35;;;18.80;78.10;;;;;;5054058;28;20786;-80
2021/09/18 10:27:58;;;;;;;31.50;18.23;;;19.00;79.30;;;;;;5035833;28;20746;-79
2021/09/18 10:30:30;;;;;;;25.92;15.35;;;19.20;78.20;;;;;;5053864;28;20377;-79
2021/09/18 10:32:56;;;;;;;23.23;13.93;;;19.30;77.50;;;;;;5035866;28;20401;-80
2021/09/18 10:35:22;;;;;;;23.20;14.97;;;19.20;77.90;;;;;;5035796;28;21045;-79
2021/09/18 10:37:47;;;;;;;24.60;14.87;;;19.30;77.90;;;;;;5035729;28;20406;-79
2021/09/18 10:40:16;;;;;;;28.50;16.08;;;19.30;77.50;;;;;;5036039;28;20425;-79
2021/09/18 10:42:44;;;;;;;28.67;16.48;;;19.40;76.90;;;;;;5053481;28;20380;-79
2021/09/18 10:45:12;;;;;;;32.17;18.58;;;19.50;75.50;;;;;;5035521;28;20854;-79
2021/09/18 10:47:48;;;;;;;26.90;17.27;;;19.50;76.00;;;;;;5035329;28;20385;-79
2021/09/18 10:50:25;;;;;;;24.63;14.80;;;19.70;76.80;;;;;;5035528;28;20393;-79
2021/09/18 10:53:01;;;;;;;24.80;14.88;;;19.90;73.80;;;;;;5035423;28;20477;-79
2021/09/18 10:55:27;;;;;;;21.43;13.03;;;19.80;72.50;;;;;;5035113;28;20402;-79
2021/09/18 10:58:02;;;;;;;27.07;17.30;;;19.90;75.10;;;;;;5053079;28;20413;-78
2021/09/18 11:00:27;;;;;;;30.80;18.08;;;19.60;73.50;;;;;;5034158;28;20469;-79
2021/09/18 11:03:00;;;;;;;25.70;16.77;;;19.10;75.00;;;;;;5034741;28;20459;-79
2021/09/18 11:05:37;;;;;;;33.90;20.88;;;19.10;74.90;;;;;;5035019;28;20389;-79
2021/09/18 11:08:19;;;;;;;36.40;20.55;;;18.90;76.40;;;;;;5035110;28;20454;-79
2021/09/18 11:10:45;;;;;;;31.33;20.88;;;19.30;77.10;;;;;;5052970;28;20457;-80
2021/09/18 11:13:11;;;;;;;30.03;19.50;;;19.20;76.50;;;;;;5034937;28;20393;-79
2021/09/18 11:15:39;;;;;;;28.80;20.17;;;19.00;76.30;;;;;;5034901;28;20468;-79
2021/09/18 11:18:31;;;;;;;33.20;19.52;;;18.90;76.20;;;;;;5034747;28;20899;-79
2021/09/18 11:21:16;;;;;;;31.38;18.40;;;18.80;75.80;;;;;;5034877;28;20551;-80
2021/09/18 11:23:56;;;;;;;25.10;15.93;;;19.20;76.90;;;;;;5035019;28;20727;-79
2021/09/18 11:26:39;;;;;;;28.88;17.27;;;19.30;74.10;;;;;;5052828;28;20385;-79
2021/09/18 11:29:13;;;;;;;24.13;15.93;;;19.40;72.40;;;;;;5034644;28;20436;-79
2021/09/18 11:31:51;;;;;;;24.70;16.13;;;19.60;73.90;;;;;;5052632;28;20378;-79
2021/09/18 11:34:17;;;;;;;21.85;15.02;;;19.40;72.70;;;;;;5052555;28;20456;-79
2021/09/18 11:36:44;;;;;;;21.70;15.35;;;19.50;74.30;;;;;;5052768;28;21713;-80
2021/09/18 11:39:10;;;;;;;20.95;14.43;;;19.60;72.40;;;;;;5032339;28;20481;-79
2021/09/18 11:41:35;;;;;;;19.92;13.48;;;19.60;72.40;;;;;;5034195;28;20481;-80
2021/09/18 11:44:11;;;;;;;17.65;11.23;;;19.80;72.60;;;;;;5034424;28;20450;-79
2021/09/18 11:46:38;;;;;;;19.93;12.13;;;19.80;71.70;;;;;;5032821;28;20424;-82
2021/09/18 11:49:06;;;;;;;19.95;13.00;;;19.90;69.40;;;;;;5350749;22;20798;-78
2021/09/18 11:51:33;;;;;;;20.75;13.15;;;20.10;70.10;;;;;;5032482;28;20618;-78
2021/09/18 11:54:04;;;;;;;20.27;12.90;;;20.00;68.80;;;;;;5028648;28;20379;-76
2021/09/18 11:56:30;;;;;;;23.02;14.55;;;20.20;70.20;;;;;;5029200;28;20460;-76
2021/09/18 11:58:56;;;;;;;20.83;14.15;;;19.90;70.60;;;;;;5029035;28;20415;-78
2021/09/18 12:01:21;;;;;;;20.10;13.87;;;19.80;71.90;;;;;;5029718;28;20480;-82
2021/09/18 12:03:49;;;;;;;22.65;13.00;;;19.80;71.50;;;;;;5029927;28;20858;-80
2021/09/18 12:06:16;;;;;;;19.00;12.73;;;19.70;73.00;;;;;;5031280;28;20391;-78
2021/09/18 12:08:45;;;;;;;17.30;11.82;;;19.60;71.30;;;;;;5031403;28;20496;-78
2021/09/18 12:11:12;;;;;;;24.40;13.80;;;19.70;72.30;;;;;;5030719;28;20417;-81
2021/09/18 12:13:47;;;;;;;18.42;12.27;;;19.80;70.40;;;;;;5030698;28;20390;-77
2021/09/18 12:16:14;;;;;;;20.00;13.30;;;19.90;70.70;;;;;;5032056;28;20387;-77
2021/09/18 12:22:02;;;;;;;19.60;13.20;;;20.10;68.90;;;;;;5029636;28;20858;-78
2021/09/18 12:24:27;;;;;;;19.38;12.23;;;20.10;70.20;;;;;;5030286;28;20375;-77
2021/09/18 12:29:28;;;;;;;17.02;12.18;;;20.30;68.40;;;;;;5104758;22;20461;-78
2021/09/18 12:32:03;;;;;;;19.83;12.00;;;20.20;69.10;;;;;;5047980;28;20432;-77
2021/09/18 12:34:37;;;;;;;17.23;11.60;;;20.30;68.60;;;;;;5049015;28;20473;-77
2021/09/18 12:37:07;;;;;;;18.48;11.98;;;20.40;69.00;;;;;;5049749;28;20492;-77